Terminal Aerodrome Forecast
Issued by NWS

Current Version | Previous Version | Graphics & Text | Print | Product List | Glossary On
Versions: 1 2 3 4 5 6 7 8 9 10 11 12 13 14 15 16 17 18 19 20 21 22
000
FTUS41 KILN 242300
TAFLUK
TAF
KLUK 242338Z 2500/2524 13003KT P6SM OVC080
     FM250600 12005KT P6SM VCSH OVC060
     FM251200 10006KT P6SM -SHRA OVC050
     FM251600 08010KT 5SM -SHRA BR OVC015
     FM251900 08010KT P6SM VCSH OVC015
     FM252100 06010KT 5SM -SHRA VCTS BKN015CB OVC025
     FM252300 04010KT 3SM BR VCSH OVC009=

USA.gov is the U.S. government's official web portal to all federal, state and local government web resources and services.